Time;durP1;ratioP1;P1;durP2;ratioP2;P2;SDS_P1;SDS_P2;PMS_P1;PMS_P2;Temp;Humidity;BMP_temperature;BMP_pressure;BME280_temperature;BME280_humidity;BME280_pressure;Samples;Min_cycle;Max_cycle;Signal;HPM_P1;HPM_P2
2022/05/01 00:00:58;;;;;;;13.35;8.52;;;;;;;;;;5031525;28;20021;-72
2022/05/01 00:03:36;;;;;;;18.90;8.57;;;;;;;;;;5031623;28;20116;-72
2022/05/01 00:06:06;;;;;;;20.13;9.18;;;;;;;;;;5035824;28;20398;-73
2022/05/01 00:08:33;;;;;;;14.77;8.88;;;;;;;;;;5035730;28;20125;-72
2022/05/01 00:11:00;;;;;;;18.05;8.82;;;;;;;;;;5034480;28;20479;-73
2022/05/01 00:13:26;;;;;;;15.18;8.85;;;;;;;;;;5034270;28;20506;-73
2022/05/01 00:15:52;;;;;;;14.25;8.82;;;;;;;;;;5035530;28;20032;-73
2022/05/01 00:18:19;;;;;;;16.52;9.20;;;;;;;;;;5034278;28;20029;-73
2022/05/01 00:20:45;;;;;;;14.10;9.02;;;;;;;;;;5035563;28;20037;-73
2022/05/01 00:23:11;;;;;;;19.80;9.60;;;;;;;;;;5034097;28;20032;-73
2022/05/01 00:25:42;;;;;;;14.95;9.23;;;;;;;;;;5035522;28;20490;-74
2022/05/01 00:28:12;;;;;;;17.15;9.75;;;;;;;;;;5034140;28;20411;-73
2022/05/01 00:30:38;;;;;;;13.15;9.00;;;;;;;;;;5033810;28;20059;-73
2022/05/01 00:38:35;;;;;;;18.10;8.65;;;;;;;;;;5035492;28;20052;-73
2022/05/01 00:41:01;;;;;;;16.85;8.68;;;;;;;;;;5035289;28;20494;-72
2022/05/01 00:43:27;;;;;;;15.88;9.30;;;;;;;;;;5035094;28;20460;-73
2022/05/01 00:45:53;;;;;;;17.25;9.50;;;;;;;;;;5035008;28;20434;-73
2022/05/01 00:48:19;;;;;;;15.43;9.45;;;;;;;;;;5050318;28;20038;-73
2022/05/01 00:50:46;;;;;;;19.33;9.43;;;;;;;;;;5034918;28;20472;-73
2022/05/01 00:53:12;;;;;;;19.23;9.75;;;;;;;;;;5034883;28;20105;-72
2022/05/01 00:55:38;;;;;;;16.90;9.63;;;;;;;;;;5034777;28;20495;-72
2022/05/01 00:58:06;;;;;;;20.65;9.25;;;;;;;;;;5034916;28;20029;-73
2022/05/01 01:00:33;;;;;;;17.88;10.07;;;;;;;;;;5034610;28;20517;-73
2022/05/01 01:02:59;;;;;;;18.45;9.75;;;;;;;;;;5034783;28;20033;-72
2022/05/01 01:05:25;;;;;;;18.00;9.57;;;;;;;;;;5033244;28;20117;-73
2022/05/01 01:07:52;;;;;;;15.40;9.80;;;;;;;;;;5034728;28;20097;-72
2022/05/01 01:10:19;;;;;;;17.98;9.32;;;;;;;;;;5034730;28;20468;-72
2022/05/01 01:12:54;;;;;;;15.07;9.60;;;;;;;;;;5034624;28;20486;-72
2022/05/01 01:15:20;;;;;;;19.23;9.80;;;;;;;;;;5034024;28;20355;-73
2022/05/01 01:17:52;;;;;;;16.77;9.75;;;;;;;;;;5034534;28;20018;-72
2022/05/01 01:20:25;;;;;;;15.40;8.77;;;;;;;;;;5034394;28;20075;-73
2022/05/01 01:22:52;;;;;;;12.25;8.38;;;;;;;;;;5034391;28;20027;-73
2022/05/01 01:25:19;;;;;;;19.75;9.27;;;;;;;;;;5033034;28;20102;-73
2022/05/01 01:27:45;;;;;;;17.30;9.85;;;;;;;;;;5034322;28;20466;-73
2022/05/01 01:32:56;;;;;;;20.23;9.88;;;;;;;;;;5034312;28;20053;-72
2022/05/01 01:35:26;;;;;;;14.80;10.00;;;;;;;;;;5033985;28;20033;-72
2022/05/01 01:37:53;;;;;;;17.48;10.32;;;;;;;;;;5034246;28;20383;-73
2022/05/01 01:40:23;;;;;;;18.75;9.27;;;;;;;;;;5049305;28;20029;-72
2022/05/01 01:42:54;;;;;;;19.33;10.00;;;;;;;;;;5034051;28;20029;-72
2022/05/01 01:45:20;;;;;;;14.40;9.52;;;;;;;;;;5033865;28;20109;-72
2022/05/01 01:47:49;;;;;;;17.08;9.40;;;;;;;;;;5033996;28;20128;-72
2022/05/01 01:50:17;;;;;;;18.45;10.50;;;;;;;;;;5033839;28;20028;-72
2022/05/01 01:52:46;;;;;;;18.33;10.18;;;;;;;;;;5033891;28;20014;-72
2022/05/01 01:55:14;;;;;;;19.42;10.30;;;;;;;;;;5033631;28;20128;-72
2022/05/01 01:57:40;;;;;;;19.00;9.95;;;;;;;;;;5033793;28;20493;-73
2022/05/01 02:00:07;;;;;;;17.90;9.82;;;;;;;;;;5033680;28;20026;-73
2022/05/01 02:02:33;;;;;;;16.50;10.63;;;;;;;;;;5033619;28;20383;-72
2022/05/01 02:04:59;;;;;;;15.35;9.75;;;;;;;;;;5031912;28;20037;-72
2022/05/01 02:07:25;;;;;;;18.75;10.02;;;;;;;;;;5033586;28;20026;-73
2022/05/01 02:09:51;;;;;;;16.33;10.90;;;;;;;;;;5033379;28;20087;-72
2022/05/01 02:12:20;;;;;;;21.75;11.57;;;;;;;;;;5033405;28;20022;-73
2022/05/01 02:14:46;;;;;;;22.25;11.40;;;;;;;;;;5033440;28;20351;-73
2022/05/01 02:17:12;;;;;;;16.52;10.57;;;;;;;;;;5033283;28;20399;-73
2022/05/01 02:19:38;;;;;;;17.95;10.75;;;;;;;;;;5033314;28;20037;-73
2022/05/01 02:22:04;;;;;;;18.38;10.93;;;;;;;;;;5033388;28;20048;-73
2022/05/01 02:24:30;;;;;;;21.77;10.35;;;;;;;;;;5033111;28;20053;-72
2022/05/01 02:26:56;;;;;;;18.50;10.38;;;;;;;;;;5032428;28;20501;-72
2022/05/01 02:29:22;;;;;;;17.52;10.82;;;;;;;;;;5033099;28;20033;-72
2022/05/01 02:31:55;;;;;;;19.67;10.60;;;;;;;;;;5015362;28;20037;-72
2022/05/01 02:34:25;;;;;;;21.98;11.40;;;;;;;;;;5013415;28;20084;-73
2022/05/01 02:36:51;;;;;;;16.40;10.20;;;;;;;;;;5013232;28;20404;-73
2022/05/01 02:39:18;;;;;;;19.05;10.68;;;;;;;;;;5013256;28;20022;-72
2022/05/01 02:41:44;;;;;;;23.20;10.73;;;;;;;;;;5013250;28;20034;-73
2022/05/01 02:44:10;;;;;;;22.80;10.40;;;;;;;;;;5028130;28;20021;-73
2022/05/01 02:46:36;;;;;;;18.88;11.75;;;;;;;;;;5013077;28;20018;-73
2022/05/01 02:49:04;;;;;;;18.40;11.20;;;;;;;;;;5012987;28;20072;-73
2022/05/01 02:51:31;;;;;;;19.23;10.93;;;;;;;;;;5012878;28;20456;-72
2022/05/01 02:53:58;;;;;;;21.00;12.23;;;;;;;;;;5012685;28;20119;-73
2022/05/01 02:56:24;;;;;;;21.40;11.75;;;;;;;;;;5012947;28;20392;-72
2022/05/01 02:58:50;;;;;;;21.00;11.90;;;;;;;;;;5012963;28;20033;-72
2022/05/01 03:01:17;;;;;;;19.60;11.45;;;;;;;;;;5020548;28;20143;-73
2022/05/01 03:03:43;;;;;;;19.98;11.88;;;;;;;;;;5031088;28;20159;-73
2022/05/01 03:06:09;;;;;;;20.05;11.63;;;;;;;;;;5032352;28;20116;-73
2022/05/01 03:08:35;;;;;;;26.58;12.10;;;;;;;;;;5030961;28;20033;-72
2022/05/01 03:11:01;;;;;;;23.52;12.85;;;;;;;;;;5032471;28;20026;-72
2022/05/01 03:13:27;;;;;;;23.13;11.18;;;;;;;;;;5032263;28;20591;-73
2022/05/01 03:15:53;;;;;;;19.23;11.10;;;;;;;;;;5032193;28;20391;-72
2022/05/01 03:23:50;;;;;;;18.70;11.85;;;;;;;;;;5032249;28;20052;-74
2022/05/01 03:26:18;;;;;;;23.02;12.43;;;;;;;;;;5032223;28;20025;-75
2022/05/01 03:28:44;;;;;;;23.70;13.25;;;;;;;;;;5030675;28;20049;-75
2022/05/01 03:31:11;;;;;;;23.10;12.27;;;;;;;;;;5019406;28;20034;-75
2022/05/01 03:33:37;;;;;;;16.02;10.40;;;;;;;;;;5012283;28;20042;-75
2022/05/01 03:36:07;;;;;;;22.15;12.77;;;;;;;;;;5012243;28;20045;-75
2022/05/01 03:38:36;;;;;;;24.40;12.52;;;;;;;;;;5012099;28;20029;-75
2022/05/01 03:41:03;;;;;;;23.83;11.65;;;;;;;;;;5012282;28;20037;-75
2022/05/01 03:43:29;;;;;;;22.65;11.57;;;;;;;;;;5012168;28;20459;-74
2022/05/01 03:45:55;;;;;;;21.73;12.55;;;;;;;;;;5012282;28;20030;-75
2022/05/01 03:48:21;;;;;;;19.10;12.07;;;;;;;;;;5012553;28;20018;-75
2022/05/01 03:50:51;;;;;;;23.20;11.68;;;;;;;;;;5012490;28;20029;-75
2022/05/01 03:53:17;;;;;;;21.33;11.27;;;;;;;;;;5012303;28;20048;-74
2022/05/01 03:55:43;;;;;;;19.75;11.25;;;;;;;;;;5012058;28;20500;-74
2022/05/01 03:58:09;;;;;;;24.55;12.95;;;;;;;;;;5011946;28;20037;-75
2022/05/01 04:00:35;;;;;;;20.70;12.35;;;;;;;;;;5013770;28;20030;-74
2022/05/01 04:03:01;;;;;;;25.38;14.18;;;;;;;;;;5031613;28;20083;-75
2022/05/01 04:05:27;;;;;;;23.63;13.00;;;;;;;;;;5030073;28;20060;-75
2022/05/01 04:07:53;;;;;;;22.98;13.23;;;;;;;;;;5031587;28;20030;-75
2022/05/01 04:10:19;;;;;;;26.20;13.95;;;;;;;;;;5031671;28;20025;-75
2022/05/01 04:12:46;;;;;;;20.10;12.02;;;;;;;;;;5031495;28;20021;-75
2022/05/01 04:15:14;;;;;;;22.58;13.05;;;;;;;;;;5031356;28;20100;-75
2022/05/01 04:17:41;;;;;;;25.13;13.77;;;;;;;;;;5031497;28;20056;-74
2022/05/01 04:20:08;;;;;;;25.42;11.95;;;;;;;;;;5031484;28;20032;-75
2022/05/01 04:22:44;;;;;;;24.55;12.43;;;;;;;;;;5031620;28;20017;-75
2022/05/01 04:25:16;;;;;;;27.13;13.18;;;;;;;;;;5031427;28;20080;-75
2022/05/01 04:27:43;;;;;;;23.50;13.50;;;;;;;;;;5031472;28;20025;-75
2022/05/01 04:30:10;;;;;;;21.92;13.48;;;;;;;;;;5031310;28;20141;-75
2022/05/01 04:32:46;;;;;;;23.48;12.45;;;;;;;;;;5031714;28;20104;-75
2022/05/01 04:35:12;;;;;;;23.48;13.18;;;;;;;;;;5031270;28;20041;-75
2022/05/01 04:37:39;;;;;;;22.67;12.68;;;;;;;;;;5031402;28;20029;-75
2022/05/01 04:40:05;;;;;;;25.27;13.18;;;;;;;;;;5031321;28;20455;-75
2022/05/01 04:42:31;;;;;;;24.02;12.30;;;;;;;;;;5031384;28;20039;-75
2022/05/01 04:44:57;;;;;;;20.90;12.32;;;;;;;;;;5031124;28;20101;-74
2022/05/01 04:47:24;;;;;;;18.90;11.32;;;;;;;;;;5031206;28;20017;-75
2022/05/01 04:49:50;;;;;;;21.05;12.32;;;;;;;;;;5031911;28;20387;-75
2022/05/01 04:52:16;;;;;;;23.67;13.45;;;;;;;;;;5034935;28;20029;-75
2022/05/01 04:54:42;;;;;;;24.75;14.27;;;;;;;;;;5034698;28;20045;-74
2022/05/01 04:57:09;;;;;;;23.65;13.23;;;;;;;;;;5035033;28;20034;-75
2022/05/01 04:59:36;;;;;;;26.15;14.43;;;;;;;;;;5050131;28;20051;-75
2022/05/01 05:02:03;;;;;;;26.75;15.02;;;;;;;;;;5034743;28;20037;-75
2022/05/01 05:04:29;;;;;;;26.85;13.98;;;;;;;;;;5034696;28;20029;-75
2022/05/01 05:06:55;;;;;;;22.35;13.60;;;;;;;;;;5034675;28;20017;-75
2022/05/01 05:12:07;;;;;;;23.40;12.93;;;;;;;;;;5034673;28;20041;-75
2022/05/01 05:14:33;;;;;;;22.83;12.63;;;;;;;;;;5034703;28;20018;-75
2022/05/01 05:17:01;;;;;;;24.02;13.10;;;;;;;;;;5034475;28;20040;-75
2022/05/01 05:19:27;;;;;;;19.95;11.05;;;;;;;;;;5034466;28;20026;-75
2022/05/01 05:21:53;;;;;;;19.40;11.90;;;;;;;;;;5034428;28;20379;-75
2022/05/01 05:24:19;;;;;;;20.17;12.80;;;;;;;;;;5034484;28;20030;-75
2022/05/01 05:26:45;;;;;;;21.08;12.65;;;;;;;;;;5034435;28;20026;-75
2022/05/01 05:29:11;;;;;;;24.67;15.40;;;;;;;;;;5034335;28;20029;-75
2022/05/01 05:31:37;;;;;;;28.90;15.10;;;;;;;;;;5032838;28;20026;-75
2022/05/01 05:34:03;;;;;;;22.48;14.90;;;;;;;;;;5029213;28;20038;-74
2022/05/01 05:36:29;;;;;;;26.63;13.95;;;;;;;;;;5014408;28;20060;-75
2022/05/01 05:38:55;;;;;;;22.95;13.88;;;;;;;;;;5014440;28;20029;-75
2022/05/01 05:41:22;;;;;;;29.45;16.00;;;;;;;;;;5014366;28;20026;-75
2022/05/01 05:43:48;;;;;;;28.83;16.08;;;;;;;;;;5014232;28;20030;-75
2022/05/01 05:46:14;;;;;;;26.05;14.32;;;;;;;;;;5014188;28;20029;-75
2022/05/01 05:48:40;;;;;;;25.75;15.85;;;;;;;;;;5014203;28;20026;-75
2022/05/01 05:51:06;;;;;;;28.10;16.55;;;;;;;;;;5014164;28;20092;-75
2022/05/01 05:53:32;;;;;;;27.13;16.73;;;;;;;;;;5014099;28;20025;-75
2022/05/01 05:55:59;;;;;;;25.60;14.98;;;;;;;;;;5013979;28;20515;-75
2022/05/01 05:58:25;;;;;;;20.73;13.50;;;;;;;;;;5014023;28;20183;-75
2022/05/01 06:00:51;;;;;;;26.45;14.25;;;;;;;;;;5017527;28;20472;-75
2022/05/01 06:03:19;;;;;;;21.40;14.45;;;;;;;;;;5032955;28;20373;-75
2022/05/01 06:05:45;;;;;;;22.55;13.32;;;;;;;;;;5033577;28;20021;-75
2022/05/01 06:08:11;;;;;;;21.40;13.90;;;;;;;;;;5033653;28;20535;-75
2022/05/01 06:10:38;;;;;;;22.02;13.80;;;;;;;;;;5033669;28;20029;-75
2022/05/01 06:13:04;;;;;;;25.33;12.90;;;;;;;;;;5033536;28;20022;-75
2022/05/01 06:15:31;;;;;;;23.73;12.30;;;;;;;;;;5033324;28;20517;-75
2022/05/01 06:17:57;;;;;;;25.85;13.15;;;;;;;;;;5033388;28;20025;-75
2022/05/01 06:20:23;;;;;;;22.88;13.38;;;;;;;;;;5033297;28;20022;-75
2022/05/01 06:22:52;;;;;;;21.02;12.18;;;;;;;;;;5033222;28;20037;-75
2022/05/01 06:25:18;;;;;;;25.27;12.02;;;;;;;;;;5022243;28;20072;-75
2022/05/01 06:27:44;;;;;;;22.40;13.27;;;;;;;;;;5023935;28;20487;-75
2022/05/01 06:30:11;;;;;;;20.33;11.85;;;;;;;;;;5023047;28;20040;-75
2022/05/01 06:32:41;;;;;;;21.42;12.13;;;;;;;;;;5023806;28;20523;-75
2022/05/01 06:35:07;;;;;;;17.42;11.98;;;;;;;;;;5021747;28;20042;-75
2022/05/01 06:37:37;;;;;;;20.17;11.95;;;;;;;;;;5021600;28;20021;-75
2022/05/01 06:40:04;;;;;;;19.23;11.48;;;;;;;;;;5023593;28;20337;-75
2022/05/01 06:42:31;;;;;;;19.13;11.00;;;;;;;;;;5022113;28;20026;-75
2022/05/01 06:44:57;;;;;;;17.50;10.93;;;;;;;;;;5022039;28;20368;-75
2022/05/01 06:47:23;;;;;;;17.75;10.57;;;;;;;;;;5023610;28;20021;-75
2022/05/01 06:49:49;;;;;;;17.90;10.85;;;;;;;;;;5021937;28;20046;-75
2022/05/01 06:52:23;;;;;;;14.82;10.57;;;;;;;;;;5022331;28;20097;-75
2022/05/01 06:54:50;;;;;;;18.42;10.35;;;;;;;;;;5022863;28;20128;-75
2022/05/01 06:57:16;;;;;;;20.08;10.57;;;;;;;;;;5022706;28;20358;-75
2022/05/01 06:59:42;;;;;;;19.17;10.32;;;;;;;;;;5021475;28;20492;-75
2022/05/01 07:02:08;;;;;;;16.23;10.68;;;;;;;;;;5021662;28;20025;-75
2022/05/01 07:04:34;;;;;;;16.88;10.07;;;;;;;;;;5022170;28;20022;-75
2022/05/01 07:07:00;;;;;;;17.27;10.00;;;;;;;;;;5021291;28;20029;-75
2022/05/01 07:09:26;;;;;;;14.10;9.95;;;;;;;;;;5023176;28;20443;-75
2022/05/01 07:11:52;;;;;;;15.55;9.93;;;;;;;;;;5023112;28;20478;-75
2022/05/01 07:14:18;;;;;;;15.98;9.80;;;;;;;;;;5022333;28;20028;-75
2022/05/01 07:16:45;;;;;;;15.00;9.35;;;;;;;;;;5020870;28;20065;-75
2022/05/01 07:19:11;;;;;;;14.73;9.27;;;;;;;;;;5022584;28;20536;-75
2022/05/01 07:21:37;;;;;;;17.60;9.95;;;;;;;;;;5022407;28;20172;-75
2022/05/01 07:24:03;;;;;;;14.73;9.80;;;;;;;;;;5020833;28;20018;-75
2022/05/01 07:26:33;;;;;;;16.58;9.90;;;;;;;;;;5022757;28;20480;-75
2022/05/01 07:28:59;;;;;;;19.15;9.23;;;;;;;;;;5022547;28;20691;-75
2022/05/01 07:31:25;;;;;;;16.48;9.02;;;;;;;;;;5022768;28;20024;-75
2022/05/01 07:33:51;;;;;;;16.02;9.10;;;;;;;;;;5020759;28;20368;-75
2022/05/01 07:36:19;;;;;;;17.58;9.48;;;;;;;;;;5024116;28;20021;-75
2022/05/01 07:38:45;;;;;;;13.80;9.05;;;;;;;;;;5020579;28;20361;-75
2022/05/01 07:41:11;;;;;;;15.75;9.07;;;;;;;;;;5022204;28;20452;-75
2022/05/01 07:43:38;;;;;;;15.15;9.25;;;;;;;;;;5021784;28;20386;-75
2022/05/01 07:46:04;;;;;;;13.77;9.23;;;;;;;;;;5020434;28;20022;-75
2022/05/01 07:48:31;;;;;;;15.45;8.70;;;;;;;;;;5022114;28;20021;-75
2022/05/01 07:50:57;;;;;;;13.05;8.48;;;;;;;;;;5021758;28;20084;-75
2022/05/01 07:53:23;;;;;;;18.00;8.60;;;;;;;;;;5020454;28;20057;-75
2022/05/01 07:55:49;;;;;;;13.50;8.65;;;;;;;;;;5022017;28;20491;-75
2022/05/01 07:58:15;;;;;;;19.27;9.05;;;;;;;;;;5021434;28;20029;-75
2022/05/01 08:00:41;;;;;;;10.50;7.72;;;;;;;;;;5021520;28;20017;-75
2022/05/01 08:05:52;;;;;;;11.30;7.82;;;;;;;;;;5020932;28;20028;-75
2022/05/01 08:08:18;;;;;;;12.95;8.20;;;;;;;;;;5023058;28;20093;-74
2022/05/01 08:10:44;;;;;;;11.65;7.20;;;;;;;;;;5031652;28;20060;-75
2022/05/01 08:13:10;;;;;;;13.57;8.10;;;;;;;;;;5031482;28;20029;-75
2022/05/01 08:15:36;;;;;;;15.95;7.55;;;;;;;;;;5031423;28;20025;-75
2022/05/01 08:21:08;;;;;;;11.32;7.07;;;;;;;;;;5009359;28;20063;-75
2022/05/01 08:23:41;;;;;;;9.48;6.60;;;;;;;;;;5009264;28;20077;-75
2022/05/01 08:26:10;;;;;;;9.52;6.82;;;;;;;;;;5010269;28;20046;-75
2022/05/01 08:28:36;;;;;;;12.70;6.88;;;;;;;;;;4981230;28;20065;-75
2022/05/01 08:31:03;;;;;;;10.88;6.53;;;;;;;;;;4985956;28;20062;-75
2022/05/01 08:33:29;;;;;;;14.65;7.03;;;;;;;;;;4983248;28;20030;-75
2022/05/01 08:35:55;;;;;;;10.65;6.93;;;;;;;;;;4983618;28;20050;-75
2022/05/01 08:38:21;;;;;;;14.07;7.05;;;;;;;;;;4987691;28;20027;-75
2022/05/01 08:40:49;;;;;;;9.75;6.68;;;;;;;;;;4993543;28;20039;-75
2022/05/01 08:43:15;;;;;;;14.85;8.05;;;;;;;;;;4993194;28;20128;-75
2022/05/01 08:45:45;;;;;;;11.13;7.47;;;;;;;;;;4993353;28;20449;-75
2022/05/01 08:48:19;;;;;;;12.35;6.43;;;;;;;;;;4993404;28;20492;-75
2022/05/01 08:50:47;;;;;;;11.05;6.65;;;;;;;;;;4993191;28;20030;-76
2022/05/01 08:53:14;;;;;;;10.52;6.50;;;;;;;;;;4993186;28;20027;-76
2022/05/01 08:55:41;;;;;;;12.05;6.95;;;;;;;;;;5017942;28;20041;-75
2022/05/01 08:58:08;;;;;;;12.30;6.63;;;;;;;;;;5025021;28;20014;-76
2022/05/01 09:00:34;;;;;;;9.88;5.80;;;;;;;;;;5025108;28;20020;-75
2022/05/01 09:03:00;;;;;;;9.75;6.50;;;;;;;;;;5025348;28;20357;-76
2022/05/01 09:05:26;;;;;;;15.00;6.40;;;;;;;;;;5022578;28;20109;-75
2022/05/01 09:07:52;;;;;;;8.35;4.95;;;;;;;;;;5023878;28;20022;-75
2022/05/01 09:10:19;;;;;;;7.72;4.25;;;;;;;;;;5021660;28;20033;-74
2022/05/01 09:12:52;;;;;;;9.55;5.15;;;;;;;;;;5028598;28;20072;-76
2022/05/01 09:15:28;;;;;;;7.32;5.05;;;;;;;;;;5034543;28;20486;-76
2022/05/01 09:18:01;;;;;;;10.95;5.18;;;;;;;;;;5034810;28;20112;-76
2022/05/01 09:20:27;;;;;;;7.93;4.85;;;;;;;;;;5034640;28;20547;-76
2022/05/01 09:22:53;;;;;;;10.27;4.65;;;;;;;;;;5034658;28;20545;-76
2022/05/01 09:25:23;;;;;;;12.73;4.85;;;;;;;;;;5034474;28;20037;-76
2022/05/01 09:27:51;;;;;;;8.40;5.10;;;;;;;;;;5034359;28;20057;-75
2022/05/01 09:30:20;;;;;;;5.28;4.00;;;;;;;;;;5033414;28;20355;-74
2022/05/01 09:32:46;;;;;;;7.15;3.38;;;;;;;;;;5023412;28;20018;-75
2022/05/01 09:35:13;;;;;;;6.50;3.20;;;;;;;;;;5021726;28;20033;-75
2022/05/01 09:37:40;;;;;;;6.35;3.30;;;;;;;;;;5024557;28;20039;-76
2022/05/01 09:40:06;;;;;;;6.13;3.63;;;;;;;;;;5015430;28;20475;-76
2022/05/01 09:42:36;;;;;;;4.90;3.67;;;;;;;;;;5015494;28;20076;-76
2022/05/01 09:45:12;;;;;;;6.82;3.55;;;;;;;;;;5046155;28;20244;-76
2022/05/01 09:47:42;;;;;;;7.90;3.50;;;;;;;;;;5030919;28;20021;-76
2022/05/01 09:50:09;;;;;;;5.40;3.72;;;;;;;;;;5031288;28;20013;-76
2022/05/01 09:52:54;;;;;;;8.48;3.63;;;;;;;;;;5029414;28;20009;-76
2022/05/01 09:55:20;;;;;;;8.15;3.60;;;;;;;;;;5024092;28;20127;-76
2022/05/01 09:57:46;;;;;;;10.52;3.45;;;;;;;;;;5023165;28;20034;-76
2022/05/01 10:00:13;;;;;;;7.65;3.50;;;;;;;;;;5022954;28;20041;-76
2022/05/01 10:02:39;;;;;;;5.93;2.90;;;;;;;;;;5024524;28;20028;-76
2022/05/01 10:05:06;;;;;;;3.65;2.00;;;;;;;;;;5022407;28;20112;-76
2022/05/01 10:07:39;;;;;;;6.13;2.10;;;;;;;;;;5023635;28;20064;-72
2022/05/01 10:10:08;;;;;;;5.30;3.17;;;;;;;;;;5022737;28;20033;-74
2022/05/01 10:12:36;;;;;;;4.93;2.40;;;;;;;;;;5022761;28;20026;-74
2022/05/01 10:15:03;;;;;;;3.88;2.45;;;;;;;;;;5026182;28;20025;-76
2022/05/01 10:17:30;;;;;;;6.85;2.85;;;;;;;;;;5033221;28;20112;-74
2022/05/01 10:19:57;;;;;;;6.75;3.15;;;;;;;;;;5032973;28;20075;-76
2022/05/01 10:22:24;;;;;;;4.20;3.10;;;;;;;;;;5027382;28;20030;-76
2022/05/01 10:24:50;;;;;;;6.93;3.30;;;;;;;;;;5029358;28;20151;-76
2022/05/01 10:27:34;;;;;;;4.78;3.15;;;;;;;;;;5023495;28;20065;-77
2022/05/01 10:33:02;;;;;;;5.00;2.88;;;;;;;;;;5029410;28;20117;-74
2022/05/01 10:36:01;;;;;;;4.90;3.20;;;;;;;;;;5031370;28;20509;-74
2022/05/01 10:38:27;;;;;;;4.93;3.15;;;;;;;;;;4952252;29;20039;-75
2022/05/01 10:40:55;;;;;;;5.47;3.15;;;;;;;;;;4952463;29;20481;-75
2022/05/01 10:43:32;;;;;;;6.43;3.30;;;;;;;;;;4951889;29;20122;-74
2022/05/01 10:46:01;;;;;;;5.90;3.83;;;;;;;;;;4936359;29;20029;-74
2022/05/01 10:48:30;;;;;;;7.75;3.30;;;;;;;;;;4951517;28;20478;-74
2022/05/01 10:51:16;;;;;;;4.88;3.22;;;;;;;;;;4951475;29;20159;-74
2022/05/01 10:54:02;;;;;;;4.82;3.28;;;;;;;;;;4952293;29;20040;-74
2022/05/01 10:56:34;;;;;;;7.22;3.25;;;;;;;;;;4952059;29;20047;-74
2022/05/01 10:59:19;;;;;;;5.00;3.50;;;;;;;;;;4952169;29;20031;-74
2022/05/01 11:02:14;;;;;;;6.40;3.95;;;;;;;;;;4951921;29;20047;-74
2022/05/01 11:04:41;;;;;;;6.07;3.45;;;;;;;;;;4927785;29;20517;-74
2022/05/01 11:07:10;;;;;;;7.28;3.80;;;;;;;;;;4951910;29;20058;-75
2022/05/01 11:09:36;;;;;;;5.60;3.60;;;;;;;;;;4951608;29;20062;-75
2022/05/01 11:12:03;;;;;;;6.28;3.83;;;;;;;;;;4951773;29;20497;-74
2022/05/01 11:14:35;;;;;;;6.07;3.75;;;;;;;;;;5006898;28;20171;-75
2022/05/01 11:17:02;;;;;;;7.50;3.60;;;;;;;;;;5032165;28;20116;-74
2022/05/01 11:19:45;;;;;;;38.85;4.07;;;;;;;;;;5032085;28;20117;-74
2022/05/01 11:22:13;;;;;;;6.05;3.30;;;;;;;;;;5032100;28;20025;-74
2022/05/01 11:24:43;;;;;;;6.68;3.13;;;;;;;;;;5032090;28;20029;-74
2022/05/01 11:27:14;;;;;;;6.50;3.35;;;;;;;;;;5032200;28;20032;-74
2022/05/01 11:29:40;;;;;;;7.05;3.55;;;;;;;;;;5031675;28;20040;-74
2022/05/01 11:32:19;;;;;;;7.05;3.25;;;;;;;;;;5012335;28;20075;-74
2022/05/01 11:34:49;;;;;;;5.43;3.65;;;;;;;;;;5012203;28;20038;-75
2022/05/01 11:37:15;;;;;;;7.18;3.45;;;;;;;;;;5027253;28;20048;-74
2022/05/01 11:39:50;;;;;;;6.30;3.60;;;;;;;;;;5011948;28;20037;-74
2022/05/01 11:42:25;;;;;;;7.03;3.70;;;;;;;;;;5012146;28;20076;-74
2022/05/01 11:44:52;;;;;;;13.60;3.88;;;;;;;;;;5011832;28;20029;-74
2022/05/01 11:47:36;;;;;;;7.20;3.50;;;;;;;;;;5012083;28;20064;-74
2022/05/01 11:50:03;;;;;;;5.55;3.45;;;;;;;;;;5011893;28;20119;-74
2022/05/01 11:52:30;;;;;;;9.55;4.28;;;;;;;;;;5012011;28;20021;-74
2022/05/01 11:54:57;;;;;;;7.70;3.60;;;;;;;;;;5011846;28;20050;-74
2022/05/01 12:03:11;;;;;;;4.93;3.17;;;;;;;;;;5008613;28;20038;-74
2022/05/01 12:05:44;;;;;;;5.78;3.35;;;;;;;;;;5009577;28;20144;-74
2022/05/01 12:08:11;;;;;;;11.15;3.72;;;;;;;;;;5009529;28;20459;-74
2022/05/01 12:10:44;;;;;;;7.10;3.40;;;;;;;;;;5009523;28;20033;-75
2022/05/01 12:13:37;;;;;;;5.03;3.53;;;;;;;;;;4992950;28;20042;-74
2022/05/01 12:16:03;;;;;;;6.53;3.47;;;;;;;;;;5007017;28;20029;-75
2022/05/01 12:18:29;;;;;;;6.78;4.13;;;;;;;;;;5009263;28;20053;-74
2022/05/01 12:20:55;;;;;;;6.93;3.33;;;;;;;;;;5009301;28;20037;-74
2022/05/01 12:23:22;;;;;;;6.63;4.20;;;;;;;;;;5009323;28;20137;-74
2022/05/01 12:25:50;;;;;;;6.47;3.78;;;;;;;;;;5009242;28;20062;-74
2022/05/01 12:28:18;;;;;;;9.18;4.20;;;;;;;;;;5009282;28;20026;-74
2022/05/01 12:30:45;;;;;;;6.22;3.72;;;;;;;;;;5008940;28;20030;-74
2022/05/01 12:33:24;;;;;;;6.90;4.03;;;;;;;;;;5009299;28;20178;-74
2022/05/01 12:36:00;;;;;;;5.15;3.95;;;;;;;;;;5009259;28;20079;-74
2022/05/01 12:38:30;;;;;;;8.48;4.00;;;;;;;;;;5009353;28;20472;-74
2022/05/01 12:43:59;;;;;;;6.78;4.00;;;;;;;;;;5011637;28;20040;-74
2022/05/01 12:46:25;;;;;;;8.27;3.90;;;;;;;;;;5011579;28;20014;-74
2022/05/01 12:48:51;;;;;;;8.50;4.05;;;;;;;;;;5011448;28;20025;-74
2022/05/01 12:51:17;;;;;;;5.90;4.00;;;;;;;;;;5011338;28;20022;-74
2022/05/01 12:53:43;;;;;;;5.22;3.50;;;;;;;;;;5011359;28;20022;-74
2022/05/01 12:56:17;;;;;;;5.25;4.05;;;;;;;;;;5011306;28;20077;-74
2022/05/01 12:58:43;;;;;;;7.68;4.13;;;;;;;;;;5011625;28;20124;-74
2022/05/01 13:01:21;;;;;;;6.70;4.03;;;;;;;;;;5017795;28;20100;-74
2022/05/01 13:03:47;;;;;;;9.32;4.35;;;;;;;;;;5031009;28;20105;-74
2022/05/01 13:06:14;;;;;;;7.03;3.67;;;;;;;;;;5031047;28;20032;-74
2022/05/01 13:08:43;;;;;;;6.72;4.05;;;;;;;;;;5030966;28;20021;-74
2022/05/01 13:11:30;;;;;;;6.80;4.25;;;;;;;;;;5032258;28;20084;-74
2022/05/01 13:13:57;;;;;;;4.97;3.80;;;;;;;;;;5034697;28;20040;-74
2022/05/01 13:16:23;;;;;;;7.45;3.55;;;;;;;;;;5034405;28;20021;-74
2022/05/01 13:18:55;;;;;;;7.38;4.18;;;;;;;;;;5034491;28;20105;-74
2022/05/01 13:21:23;;;;;;;7.10;4.18;;;;;;;;;;5034442;28;20532;-77
2022/05/01 13:23:52;;;;;;;7.13;3.92;;;;;;;;;;5034407;28;20034;-77
2022/05/01 13:26:18;;;;;;;6.60;4.57;;;;;;;;;;5034646;28;20022;-77
2022/05/01 13:28:45;;;;;;;5.25;3.58;;;;;;;;;;5034338;28;20025;-77
2022/05/01 13:31:13;;;;;;;5.80;4.20;;;;;;;;;;5034092;28;20463;-77
2022/05/01 13:33:39;;;;;;;6.97;4.38;;;;;;;;;;5034161;28;20112;-77
2022/05/01 13:36:07;;;;;;;6.63;4.35;;;;;;;;;;5034020;28;20029;-77
2022/05/01 13:38:33;;;;;;;7.97;4.35;;;;;;;;;;5049496;28;20057;-77
2022/05/01 13:46:28;;;;;;;11.30;4.47;;;;;;;;;;5034006;28;20036;-77
2022/05/01 13:48:57;;;;;;;6.65;4.10;;;;;;;;;;5033951;28;20067;-78
2022/05/01 13:51:23;;;;;;;8.45;4.07;;;;;;;;;;5033905;28;20124;-77
2022/05/01 13:53:49;;;;;;;7.53;4.40;;;;;;;;;;5049254;28;20110;-77
2022/05/01 13:56:16;;;;;;;8.88;3.75;;;;;;;;;;5033590;28;20052;-77
2022/05/01 13:58:43;;;;;;;10.40;5.15;;;;;;;;;;5033902;28;20042;-77
2022/05/01 14:01:09;;;;;;;11.50;4.35;;;;;;;;;;5029456;28;20018;-77
2022/05/01 14:03:36;;;;;;;7.68;4.55;;;;;;;;;;5033689;28;20029;-77
2022/05/01 14:06:02;;;;;;;7.45;4.25;;;;;;;;;;5033419;28;20091;-77
2022/05/01 14:08:28;;;;;;;14.32;4.40;;;;;;;;;;5033421;28;20013;-77
2022/05/01 14:10:54;;;;;;;5.68;4.20;;;;;;;;;;5033563;28;20028;-77
2022/05/01 14:13:20;;;;;;;4.80;3.67;;;;;;;;;;5031857;28;20493;-77
2022/05/01 14:15:46;;;;;;;7.30;4.18;;;;;;;;;;5033282;28;20467;-77
2022/05/01 14:18:14;;;;;;;6.15;4.20;;;;;;;;;;5033326;28;20075;-77
2022/05/01 14:20:40;;;;;;;5.57;3.90;;;;;;;;;;5033350;28;20064;-77
2022/05/01 14:23:07;;;;;;;5.88;4.00;;;;;;;;;;5032263;28;20034;-77
2022/05/01 14:25:33;;;;;;;5.35;3.88;;;;;;;;;;5033247;28;20156;-77
2022/05/01 14:27:59;;;;;;;8.43;4.20;;;;;;;;;;5033464;28;20084;-77
2022/05/01 14:30:26;;;;;;;6.78;4.18;;;;;;;;;;5026262;28;20026;-77
2022/05/01 14:32:54;;;;;;;5.32;4.07;;;;;;;;;;5013136;28;20445;-77
2022/05/01 14:35:21;;;;;;;6.13;3.95;;;;;;;;;;5013033;28;20052;-77
2022/05/01 14:38:05;;;;;;;9.15;4.18;;;;;;;;;;5013197;28;20108;-77
2022/05/01 14:40:34;;;;;;;8.02;4.28;;;;;;;;;;5013084;28;20022;-77
2022/05/01 14:43:01;;;;;;;6.25;3.85;;;;;;;;;;5012928;28;20057;-79
2022/05/01 14:45:27;;;;;;;6.43;4.20;;;;;;;;;;5013594;28;20034;-78
2022/05/01 14:48:12;;;;;;;6.03;3.67;;;;;;;;;;5024670;28;20036;-76
2022/05/01 14:50:40;;;;;;;7.78;4.55;;;;;;;;;;5021943;28;20029;-77
2022/05/01 14:53:09;;;;;;;7.07;3.92;;;;;;;;;;5021583;28;20044;-77
2022/05/01 14:55:36;;;;;;;7.45;3.83;;;;;;;;;;5021688;28;20046;-77
2022/05/01 14:58:03;;;;;;;7.97;4.15;;;;;;;;;;5024087;28;20044;-77
2022/05/01 15:06:18;;;;;;;8.35;4.05;;;;;;;;;;5018864;28;20060;-78
2022/05/01 15:08:44;;;;;;;7.00;4.13;;;;;;;;;;5028286;28;20454;-76
2022/05/01 15:11:12;;;;;;;7.47;4.10;;;;;;;;;;5028213;28;20034;-76
2022/05/01 15:13:38;;;;;;;5.13;3.80;;;;;;;;;;5038797;28;20021;-76
2022/05/01 15:16:12;;;;;;;6.68;3.72;;;;;;;;;;5028098;28;20045;-76
2022/05/01 15:18:54;;;;;;;7.68;3.95;;;;;;;;;;5029935;28;20021;-78
2022/05/01 15:24:24;;;;;;;6.40;4.00;;;;;;;;;;5026528;28;20041;-77